Terminal Aerodrome Forecast
Issued by NWS

Home | Current Version | Previous Version | Text Only | Print | Product List | Glossary On
Versions: 1 2 3 4 5 6 7 8 9 10 11 12 13 14 15
930
FTUS41 KGYX 240528
TAFPSM
TAF
KPSM 240528Z 2406/2506 00000KT P6SM SCT100 BKN250
     FM241200 20007KT P6SM BKN050 OVC100
     FM241700 21009KT 5SM -SN BKN025 OVC050
     FM242000 21008KT P6SM -SHRA BKN015 OVC025=

USA.gov is the U.S. government's official web portal to all federal, state and local government web resources and services.